Time;durP1;ratioP1;P1;durP2;ratioP2;P2;SDS_P1;SDS_P2;PMS_P1;PMS_P2;Temp;Humidity;BMP_temperature;BMP_pressure;BME280_temperature;BME280_humidity;BME280_pressure;Samples;Min_cycle;Max_cycle;Signal;HPM_P1;HPM_P2
2022/10/26 00:03:16;;;;;;;0.70;0.70;;;;;;;10.92;67.64;101008.28;18238792;32;20074;-57
2022/10/26 00:13:20;;;;;;;0.80;0.80;;;;;;;10.87;66.90;101017.81;18240315;32;20086;-57
2022/10/26 00:23:24;;;;;;;0.73;0.70;;;;;;;10.61;67.53;101020.25;18252475;32;20701;-57
2022/10/26 00:33:28;;;;;;;0.40;0.40;;;;;;;10.50;67.80;101017.53;18241818;32;20160;-57
2022/10/26 00:43:38;;;;;;;0.50;0.50;;;;;;;10.45;68.26;101019.25;18238730;32;20098;-57
2022/10/26 00:53:42;;;;;;;1.48;0.90;;;;;;;10.38;68.72;101013.94;18238091;32;20085;-57
2022/10/26 01:03:47;;;;;;;1.02;1.02;;;;;;;10.49;68.23;101010.56;18237648;32;20389;-57
2022/10/26 01:13:51;;;;;;;0.70;0.70;;;;;;;10.50;68.40;101012.31;18236619;32;20137;-57
2022/10/26 01:24:10;;;;;;;0.52;0.52;;;;;;;10.44;67.94;101001.84;18237737;32;20110;-57
2022/10/26 01:34:16;;;;;;;1.60;1.50;;;;;;;10.31;67.49;101011.28;18235868;32;20081;-57
2022/10/26 01:44:22;;;;;;;0.70;0.70;;;;;;;10.20;67.72;100999.00;18237316;32;20104;-57
2022/10/26 01:54:27;;;;;;;1.25;1.17;;;;;;;10.11;67.86;100991.94;18278420;32;20151;-57
2022/10/26 02:04:37;;;;;;;0.60;0.60;;;;;;;10.13;67.03;100976.31;18297647;32;20180;-57
2022/10/26 02:14:48;;;;;;;0.47;0.47;;;;;;;9.91;67.70;100981.34;18297334;32;20115;-57
2022/10/26 02:24:53;;;;;;;0.70;0.70;;;;;;;9.87;67.62;100978.69;18294404;32;20089;-57
2022/10/26 02:34:58;;;;;;;0.50;0.50;;;;;;;9.83;67.93;100975.19;18241925;32;20201;-57
2022/10/26 02:45:04;;;;;;;0.50;0.50;;;;;;;9.94;67.19;100976.16;18241897;32;20094;-56
2022/10/26 02:55:12;;;;;;;0.52;0.52;;;;;;;9.68;67.67;100991.53;18242511;32;20093;-57
2022/10/26 03:05:18;;;;;;;0.43;0.43;;;;;;;9.60;68.05;101006.22;18242193;32;20090;-57
2022/10/26 03:15:22;;;;;;;0.40;0.40;;;;;;;9.57;68.03;101013.13;18240999;32;20085;-57
2022/10/26 03:25:26;;;;;;;0.90;0.90;;;;;;;9.60;67.58;101016.63;18240141;32;20116;-57
2022/10/26 03:35:30;;;;;;;2.50;1.40;;;;;;;9.58;67.59;101020.09;18234885;32;151567;-57
2022/10/26 03:45:33;;;;;;;0.60;0.60;;;;;;;9.58;67.05;101027.94;18239992;32;20106;-57
2022/10/26 03:55:38;;;;;;;0.60;0.60;;;;;;;9.36;67.84;101023.28;18239471;32;20108;-57
2022/10/26 04:05:41;;;;;;;0.77;0.77;;;;;;;9.29;67.68;101036.25;18240468;32;20436;-57
2022/10/26 04:15:46;;;;;;;0.50;0.50;;;;;;;9.34;67.70;101041.50;18239394;32;20121;-57
2022/10/26 04:25:49;;;;;;;0.60;0.60;;;;;;;9.13;68.24;101047.31;18239121;32;20097;-56
2022/10/26 04:35:59;;;;;;;0.95;0.95;;;;;;;9.04;67.62;101057.59;18238806;32;20118;-57
2022/10/26 04:46:02;;;;;;;0.60;0.60;;;;;;;8.88;68.62;101063.44;18237644;32;20079;-56
2022/10/26 04:56:07;;;;;;;0.62;0.62;;;;;;;8.95;68.26;101040.97;18238817;32;20129;-57
2022/10/26 05:06:10;;;;;;;0.82;0.73;;;;;;;9.11;68.07;101052.47;18276058;32;20354;-57
2022/10/26 05:16:15;;;;;;;0.65;0.65;;;;;;;9.15;67.79;101063.81;18299043;32;20563;-57
2022/10/26 05:26:19;;;;;;;0.75;0.75;;;;;;;9.13;68.31;101066.41;18299610;32;20081;-57
2022/10/26 05:36:23;;;;;;;1.70;1.60;;;;;;;9.00;68.10;101080.97;18298970;32;20097;-57
2022/10/26 05:46:26;;;;;;;2.28;2.08;;;;;;;9.16;67.58;101083.81;18294212;32;20171;-57
2022/10/26 05:56:39;;;;;;;0.62;0.62;;;;;;;9.36;67.66;101081.50;18302081;32;20111;-57
2022/10/26 06:06:45;;;;;;;0.62;0.62;;;;;;;9.39;68.58;101091.06;18307616;32;20139;-57
2022/10/26 06:17:03;;;;;;;0.75;0.75;;;;;;;9.71;69.10;101098.44;18308477;32;20108;-56
2022/10/26 06:27:16;;;;;;;0.60;0.60;;;;;;;9.85;69.20;101106.44;18309242;32;20097;-57
2022/10/26 06:37:23;;;;;;;0.40;0.40;;;;;;;10.48;68.86;101108.91;18309515;32;20177;-57
2022/10/26 06:47:30;;;;;;;0.40;0.40;;;;;;;11.74;67.53;101109.75;18307792;32;20109;-57
2022/10/26 06:57:36;;;;;;;1.02;1.02;;;;;;;13.36;63.95;101111.69;18280938;32;20457;-57
2022/10/26 07:07:43;;;;;;;0.37;0.37;;;;;;;15.03;59.54;101115.16;18186656;32;20098;-57
2022/10/26 07:17:49;;;;;;;0.35;0.35;;;;;;;16.91;55.29;101109.22;18241497;32;20544;-57
2022/10/26 07:27:57;;;;;;;0.75;0.75;;;;;;;17.31;55.60;101118.19;18242039;32;20098;-58
2022/10/26 07:38:02;;;;;;;0.43;0.43;;;;;;;17.39;55.66;101113.66;18266727;32;20509;-59
2022/10/26 07:48:05;;;;;;;0.40;0.40;;;;;;;16.99;57.19;101115.25;18287338;32;20138;-58
2022/10/26 07:58:10;;;;;;;3.50;0.40;;;;;;;16.27;61.55;101123.41;18284409;32;20098;-59
2022/10/26 08:08:13;;;;;;;0.30;0.30;;;;;;;16.70;60.71;101110.47;18301016;32;20089;-59
2022/10/26 08:18:18;;;;;;;0.20;0.20;;;;;;;16.74;61.29;101107.75;18302300;32;20101;-59
2022/10/26 08:28:21;;;;;;;0.47;0.47;;;;;;;16.80;60.91;101104.13;18301519;32;20405;-58
2022/10/26 08:38:25;;;;;;;0.20;0.20;;;;;;;17.27;59.75;101106.88;18301421;32;20663;-59
2022/10/26 08:48:33;;;;;;;0.20;0.20;;;;;;;17.67;59.12;101121.03;18301484;32;20435;-59
2022/10/26 08:58:40;;;;;;;0.37;0.37;;;;;;;18.07;58.89;101113.19;18298950;32;20087;-58
2022/10/26 09:08:54;;;;;;;0.10;0.10;;;;;;;18.57;58.12;101107.63;18300542;32;20097;-57
2022/10/26 09:19:15;;;;;;;0.80;0.37;;;;;;;19.03;57.11;101120.63;18279233;32;20116;-57
2022/10/26 09:29:19;;;;;;;0.95;0.47;;;;;;;19.01;57.39;101117.16;18235920;32;20141;-59
2022/10/26 09:39:31;;;;;;;0.20;0.20;;;;;;;19.34;57.61;101120.69;18278779;32;20139;-57
2022/10/26 09:49:40;;;;;;;0.57;0.25;;;;;;;19.59;56.91;101127.06;18298768;32;20168;-58
2022/10/26 09:59:46;;;;;;;0.50;0.50;;;;;;;19.39;58.76;101131.16;18293486;32;20103;-58
2022/10/26 10:10:07;;;;;;;14.70;3.85;;;;;;;20.03;56.98;101132.91;18297335;32;20108;-58
2022/10/26 10:20:19;;;;;;;13.57;5.43;;;;;;;20.31;56.82;101132.03;18297936;32;20105;-57
2022/10/26 10:30:25;;;;;;;0.30;0.30;;;;;;;20.38;56.64;101125.59;18299841;32;20116;-58
2022/10/26 10:40:31;;;;;;;0.50;0.50;;;;;;;20.38;57.00;101125.59;18344790;32;20138;-58
2022/10/26 10:50:35;;;;;;;0.15;0.15;;;;;;;20.36;57.45;101118.63;18368044;32;20103;-58
2022/10/26 11:00:43;;;;;;;0.65;0.43;;;;;;;20.58;56.88;101109.97;18368075;32;20184;-58
2022/10/26 11:10:51;;;;;;;0.20;0.20;;;;;;;20.44;56.65;101116.62;18368661;32;20481;-58
2022/10/26 11:21:00;;;;;;;1.45;0.70;;;;;;;20.43;56.14;101114.84;18351255;32;20419;-58
2022/10/26 11:31:08;;;;;;;0.10;0.10;;;;;;;19.79;58.15;101111.47;18302951;32;20167;-59
2022/10/26 11:41:18;;;;;;;0.20;0.20;;;;;;;19.96;57.59;101112.78;18292363;32;20108;-58
2022/10/26 11:51:31;;;;;;;1.05;0.75;;;;;;;20.33;56.80;101106.34;18276438;32;20111;-58
2022/10/26 12:01:36;;;;;;;3.10;1.55;;;;;;;19.91;57.83;101098.75;18302303;32;20130;-58
2022/10/26 12:11:44;;;;;;;2.87;1.25;;;;;;;20.06;57.38;101086.84;18305067;32;20451;-58
2022/10/26 12:21:49;;;;;;;1.25;0.70;;;;;;;20.48;55.36;101096.12;18271213;32;20434;-57
2022/10/26 12:31:53;;;;;;;0.00;0.00;;;;;;;20.65;54.90;101091.16;18281972;32;20096;-58
2022/10/26 12:41:59;;;;;;;0.22;0.10;;;;;;;20.41;55.33;101103.44;18302598;32;20525;-58
2022/10/26 12:52:02;;;;;;;0.25;0.20;;;;;;;20.30;55.59;101095.84;18278510;32;20097;-58
2022/10/26 13:02:32;;;;;;;0.80;0.77;;;;;;;20.31;55.66;101089.62;18241175;32;20194;-58
2022/10/26 13:12:39;;;;;;;0.20;0.20;;;;;;;20.51;55.20;101088.09;18237463;32;20106;-58
2022/10/26 13:22:47;;;;;;;0.10;0.10;;;;;;;20.32;55.95;101101.97;18237959;32;20133;-58
2022/10/26 13:32:53;;;;;;;0.10;0.10;;;;;;;20.33;55.88;101102.81;18237561;32;20094;-58
2022/10/26 13:43:02;;;;;;;0.10;0.10;;;;;;;20.59;55.53;101091.37;18239227;32;20406;-58
2022/10/26 13:53:08;;;;;;;0.10;0.10;;;;;;;20.55;54.90;101089.72;18238143;32;20090;-58
2022/10/26 14:03:19;;;;;;;0.10;0.10;;;;;;;20.37;55.36;101097.34;18237708;32;20090;-58
2022/10/26 14:13:25;;;;;;;0.08;0.08;;;;;;;20.52;55.50;101100.44;18237617;32;20099;-58
2022/10/26 14:23:34;;;;;;;0.10;0.10;;;;;;;20.48;55.86;101104.09;18230078;32;20142;-58
2022/10/26 14:33:37;;;;;;;0.30;0.30;;;;;;;20.30;56.60;101108.22;18298983;32;20097;-58
2022/10/26 14:43:42;;;;;;;0.28;0.28;;;;;;;20.19;57.14;101109.44;18308241;32;20098;-58
2022/10/26 14:53:48;;;;;;;0.13;0.13;;;;;;;19.92;58.05;101116.44;18307722;32;20443;-58
2022/10/26 15:03:57;;;;;;;0.52;0.52;;;;;;;19.83;58.21;101112.25;18305862;32;20378;-58
2022/10/26 15:14:00;;;;;;;0.25;0.20;;;;;;;19.64;58.74;101117.22;18306876;32;20461;-58
2022/10/26 15:24:27;;;;;;;0.43;0.20;;;;;;;19.43;59.57;101118.69;18306875;32;20203;-58
2022/10/26 15:34:33;;;;;;;0.77;0.75;;;;;;;19.25;60.44;101127.12;18305553;32;20116;-58
2022/10/26 15:44:38;;;;;;;0.15;0.15;;;;;;;19.13;60.95;101132.72;18306990;32;20085;-58
2022/10/26 15:54:41;;;;;;;0.20;0.20;;;;;;;19.04;61.45;101143.53;18305993;32;20093;-58
2022/10/26 16:04:46;;;;;;;0.43;0.40;;;;;;;18.88;61.98;101149.22;18307134;32;20143;-57
2022/10/26 16:14:49;;;;;;;4.62;1.77;;;;;;;18.78;62.11;101150.31;18282550;32;20107;-58
2022/10/26 16:25:09;;;;;;;0.88;0.65;;;;;;;18.18;64.49;101158.75;18285949;32;20086;-58
2022/10/26 16:35:13;;;;;;;0.37;0.37;;;;;;;17.86;66.05;101174.34;18240563;32;20137;-58
2022/10/26 16:45:18;;;;;;;0.55;0.55;;;;;;;18.20;64.96;101187.75;18262666;32;20395;-58
2022/10/26 16:55:23;;;;;;;0.28;0.28;;;;;;;18.15;64.63;101185.22;18289598;32;20090;-58
2022/10/26 17:05:27;;;;;;;0.30;0.30;;;;;;;18.14;64.46;101197.59;18304068;32;20097;-58
2022/10/26 17:15:32;;;;;;;0.20;0.20;;;;;;;18.03;64.70;101205.72;18288958;32;20101;-58
2022/10/26 17:25:37;;;;;;;0.85;0.70;;;;;;;18.01;64.68;101217.19;18244361;32;20102;-58
2022/10/26 17:35:41;;;;;;;0.80;0.43;;;;;;;18.04;64.86;101227.75;18268039;32;20426;-58
2022/10/26 17:45:45;;;;;;;0.77;0.50;;;;;;;18.00;64.97;101218.97;18288495;32;20108;-58
2022/10/26 17:55:49;;;;;;;0.40;0.40;;;;;;;17.92;65.18;101236.75;18305730;32;20103;-58
2022/10/26 18:05:54;;;;;;;0.70;0.70;;;;;;;17.70;65.56;101249.47;18309268;32;20486;-58
2022/10/26 18:16:02;;;;;;;1.70;1.37;;;;;;;17.57;65.41;101257.63;18295696;32;20488;-58
2022/10/26 18:26:15;;;;;;;1.05;0.77;;;;;;;17.27;65.70;101265.19;18294373;32;20093;-58
2022/10/26 18:36:19;;;;;;;1.87;1.15;;;;;;;16.90;65.81;101269.22;18305713;32;20643;-58
2022/10/26 18:46:26;;;;;;;0.65;0.65;;;;;;;16.56;65.89;101274.09;18284415;32;20094;-58
2022/10/26 18:56:30;;;;;;;0.50;0.50;;;;;;;16.22;66.38;101280.66;18286033;32;20091;-58
2022/10/26 19:06:39;;;;;;;1.10;0.70;;;;;;;15.84;66.75;101288.06;18236813;32;20370;-57
2022/10/26 19:16:42;;;;;;;3.15;2.00;;;;;;;15.82;65.86;101301.22;18228990;32;20097;-57
2022/10/26 19:26:52;;;;;;;0.73;0.73;;;;;;;15.53;66.13;101318.16;18238566;32;20093;-57
2022/10/26 19:36:55;;;;;;;0.77;0.77;;;;;;;15.37;66.09;101333.19;18267819;32;20149;-57
2022/10/26 19:47:00;;;;;;;0.32;0.32;;;;;;;15.07;66.26;101352.66;18303440;32;20143;-57
2022/10/26 19:57:04;;;;;;;0.82;0.65;;;;;;;14.84;66.79;101375.56;18304086;32;20105;-57
2022/10/26 20:07:09;;;;;;;0.32;0.32;;;;;;;14.64;67.16;101378.22;18283438;32;20559;-57
2022/10/26 20:17:12;;;;;;;0.82;0.82;;;;;;;14.43;66.89;101387.91;18245862;32;20110;-57
2022/10/26 20:27:17;;;;;;;0.65;0.60;;;;;;;14.18;68.54;101392.34;18244364;32;20090;-57
2022/10/26 20:37:22;;;;;;;5.50;1.23;;;;;;;14.33;68.44;101390.59;18264804;32;20095;-57
2022/10/26 20:47:27;;;;;;;0.50;0.50;;;;;;;14.46;68.57;101394.03;18238911;32;20121;-57
2022/10/26 20:57:32;;;;;;;3.00;0.73;;;;;;;14.53;68.58;101401.91;18269658;32;20478;-57
2022/10/26 21:07:36;;;;;;;1.30;1.20;;;;;;;14.61;68.68;101399.25;18304744;32;20418;-57
2022/10/26 21:17:39;;;;;;;0.40;0.40;;;;;;;14.72;68.74;101412.38;18303574;32;20111;-58
2022/10/26 21:27:44;;;;;;;1.05;0.82;;;;;;;14.73;68.85;101413.28;18302216;32;20094;-57
2022/10/26 21:37:47;;;;;;;0.55;0.55;;;;;;;14.81;68.57;101420.25;18299856;32;20501;-58
2022/10/26 21:47:53;;;;;;;0.52;0.52;;;;;;;14.75;68.97;101415.03;18300755;32;20094;-57
2022/10/26 21:57:56;;;;;;;0.40;0.40;;;;;;;14.75;68.71;101424.63;18295821;32;20555;-58
2022/10/26 22:08:01;;;;;;;1.33;1.15;;;;;;;14.79;68.18;101429.87;18297028;32;20114;-58
2022/10/26 22:18:04;;;;;;;0.70;0.70;;;;;;;14.53;68.87;101435.19;18301510;32;20132;-57
2022/10/26 22:28:08;;;;;;;0.50;0.50;;;;;;;14.54;68.39;101440.44;18300898;32;20469;-57
2022/10/26 22:38:11;;;;;;;0.62;0.62;;;;;;;14.37;68.10;101440.50;18301757;32;20077;-57
2022/10/26 22:48:16;;;;;;;0.40;0.40;;;;;;;14.06;68.40;101444.88;18306907;32;20132;-57
2022/10/26 22:58:19;;;;;;;0.30;0.30;;;;;;;13.99;67.75;101452.75;18307918;32;20086;-57
2022/10/26 23:08:24;;;;;;;0.30;0.30;;;;;;;13.68;67.65;101475.44;18307714;32;20113;-57
2022/10/26 23:18:27;;;;;;;2.37;1.30;;;;;;;13.49;67.85;101469.28;18306974;32;20184;-57
2022/10/26 23:28:31;;;;;;;0.50;0.50;;;;;;;13.26;67.72;101470.94;18307122;32;20111;-57
2022/10/26 23:38:35;;;;;;;0.50;0.50;;;;;;;13.19;67.25;101458.66;18306534;32;20113;-57
2022/10/26 23:48:39;;;;;;;0.82;0.82;;;;;;;13.05;67.40;101466.47;18306259;32;20343;-57
2022/10/26 23:58:42;;;;;;;0.85;0.80;;;;;;;12.75;67.73;101465.44;18306564;32;20159;-57
